Terminal Aerodrome Forecast
Issued by NWS Melbourne, FL

Home | Current Version | Previous Version | Text Only | Print | Product List | Glossary On
Versions: 1 2 3 4 5 6 7 8 9 10 11 12 13 14 15 16 17 18 19
442
FTUS42 KMLB 031120
TAFDAB
TAF
KDAB 031120Z 0312/0412 20005KT P6SM FEW030 SCT060 BKN250
     FM031500 23010KT P6SM SCT025
     FM032000 24009KT P6SM VCTS BKN035CB
      TEMPO 0320/0323 3SM TSRA BKN020CB
     FM040200 23007KT P6SM SCT050 BKN150=

USA.gov is the U.S. government's official web portal to all federal, state and local government web resources and services.